Latest Weather Observations for Hay Point

IDQ60801

Issued at 5:32 am EST Tuesday 26 May 2015 (issued every 30 minutes, with the page automatically refreshed every 10 minutes)

About weather observations | Map of weather stations | Latest weather observations for QLD | Other Formats
Station Details ID: 033317 Name: HAY POINT Lat: -21.29 Lon: 149.30 Height: 7.0 m
Data from the previous 72 hours. | See also: Recent months for locations in Queensland
Date/Time
EST
Temp
°C
App
Temp
°C
Dew
Point
Rel
Hum
%
Delta-T
°C
Wind Press
QNH
hPa
Press
MSL
hPa
Rain
since 9 am
mm
Dir
 
Spd
km/h
Gust
km/h
Spd
kts
Gust
kts
26/05:30am - - - - - SSW 28 33 15 18 - - -
26/05:00am - - - - - SSW 32 37 17 20 - - -
26/04:30am - - - - - SSW 28 37 15 20 - - -
26/04:00am - - - - - S 30 37 16 20 - - -
26/03:30am - - - - - S 33 44 18 24 - - -
26/03:00am - - - - - SSW 28 39 15 21 - - -
26/02:30am - - - - - SSW 28 33 15 18 - - -
26/02:00am - - - - - SSW 28 41 15 22 - - -
26/01:30am - - - - - SSW 28 33 15 18 - - -
26/01:00am - - - - - SSW 24 32 13 17 - - -
26/12:30am - - - - - SSW 22 30 12 16 - - -
26/12:00am - - - - - S 22 28 12 15 - - -
 
Date/Time
EST
Temp
°C
App
Temp
°C
Dew
Point
Rel
Hum
%
Delta-T
°C
Wind Press
QNH
hPa
Press
MSL
hPa
Rain
since 9 am
mm
Dir
 
Spd
km/h
Gust
km/h
Spd
kts
Gust
kts
25/11:30pm - - - - - S 24 33 13 18 - - -
25/11:00pm - - - - - SSW 24 32 13 17 - - -
25/10:30pm - - - - - SSW 22 30 12 16 - - -
25/10:00pm - - - - - S 24 35 13 19 - - -
25/09:30pm - - - - - SE 22 32 12 17 - - -
25/09:00pm - - - - - SE 26 35 14 19 - - -
25/08:30pm - - - - - SE 24 33 13 18 - - -
25/08:00pm - - - - - SE 28 37 15 20 - - -
25/07:30pm - - - - - SSE 22 30 12 16 - - -
25/07:00pm - - - - - SSE 32 39 17 21 - - -
25/06:30pm - - - - - SE 32 41 17 22 - - -
25/06:00pm - - - - - SE 22 32 12 17 - - -
25/05:30pm - - - - - SSE 37 48 20 26 - - -
25/05:00pm - - - - - SSE 30 35 16 19 - - -
25/04:30pm - - - - - S 30 35 16 19 - - -
25/04:00pm - - - - - S 28 33 15 18 - - -
25/03:30pm - - - - - S 35 41 19 22 - - -
25/03:00pm - - - - - S 30 39 16 21 - - -
25/02:30pm - - - - - S 32 41 17 22 - - -
25/02:00pm - - - - - S 28 35 15 19 - - -
25/01:30pm - - - - - SSE 26 32 14 17 - - -
25/01:00pm - - - - - S 32 39 17 21 - - -
25/12:30pm - - - - - S 33 41 18 22 - - -
25/12:00pm - - - - - S 33 41 18 22 - - -
25/11:30am - - - - - SSE 39 46 21 25 - - -
25/11:00am - - - - - SSE 37 43 20 23 - - -
25/10:30am - - - - - S 37 44 20 24 - - -
25/10:00am - - - - - SSE 43 50 23 27 - - -
25/09:30am - - - - - S 33 43 18 23 - - -
25/09:00am - - - - - S 35 44 19 24 - - -
25/08:30am - - - - - S 33 43 18 23 - - -
25/08:00am - - - - - SSW 32 39 17 21 - - -
25/07:30am - - - - - SSW 26 33 14 18 - - -
25/07:00am - - - - - SSW 28 37 15 20 - - -
25/06:30am - - - - - SSW 30 37 16 20 - - -
25/06:00am - - - - - SSW 26 33 14 18 - - -
25/05:30am - - - - - S 28 37 15 20 - - -
25/05:00am - - - - - S 28 44 15 24 - - -
25/04:30am - - - - - S 35 48 19 26 - - -
25/04:00am - - - - - SSE 39 50 21 27 - - -
25/03:30am - - - - - S 32 41 17 22 - - -
25/03:00am - - - - - S 35 46 19 25 - - -
25/02:30am - - - - - SSE 28 43 15 23 - - -
25/02:00am - - - - - SSE 41 52 22 28 - - -
25/01:30am - - - - - S 37 46 20 25 - - -
25/01:00am - - - - - S 30 39 16 21 - - -
25/12:30am - - - - - S 33 39 18 21 - - -
25/12:00am - - - - - SSE 37 43 20 23 - - -
 
Date/Time
EST
Temp
°C
App
Temp
°C
Dew
Point
Rel
Hum
%
Delta-T
°C
Wind Press
QNH
hPa
Press
MSL
hPa
Rain
since 9 am
mm
Dir
 
Spd
km/h
Gust
km/h
Spd
kts
Gust
kts
24/11:30pm - - - - - SSE 39 46 21 25 - - -
24/11:00pm - - - - - SSE 43 52 23 28 - - -
24/10:30pm - - - - - SSE 39 44 21 24 - - -
24/10:00pm - - - - - SSE 39 48 21 26 - - -
24/09:30pm - - - - - SSE 41 48 22 26 - - -
24/09:00pm - - - - - SSE 41 48 22 26 - - -
24/08:30pm - - - - - SSE 39 46 21 25 - - -
24/08:00pm - - - - - SSE 43 48 23 26 - - -
24/07:30pm - - - - - SSE 35 48 19 26 - - -
24/07:00pm - - - - - SSE 35 46 19 25 - - -
24/06:30pm - - - - - SSE 35 48 19 26 - - -
24/06:00pm - - - - - SSE 37 48 20 26 - - -
24/05:30pm - - - - - SSE 37 50 20 27 - - -
24/05:00pm - - - - - SE 37 52 20 28 - - -
24/04:30pm - - - - - SE 35 46 19 25 - - -
24/04:00pm - - - - - SE 37 52 20 28 - - -
24/03:30pm - - - - - SSE 39 48 21 26 - - -
24/03:00pm - - - - - SSE 41 48 22 26 - - -
24/02:30pm - - - - - SSE 39 50 21 27 - - -
24/02:00pm - - - - - SSE 43 50 23 27 - - -
24/01:30pm - - - - - S 35 44 19 24 - - -
24/01:00pm - - - - - S 35 43 19 23 - - -
24/12:30pm - - - - - S 41 52 22 28 - - -
24/12:00pm - - - - - S 41 50 22 27 - - -
24/11:30am - - - - - S 44 54 24 29 - - -
24/11:00am - - - - - S 39 52 21 28 - - -
24/10:30am - - - - - S 43 52 23 28 - - -
24/10:00am - - - - - S 41 52 22 28 - - -
24/09:30am - - - - - S 44 57 24 31 - - -
24/09:00am - - - - - S 46 59 25 32 - - -
24/08:30am - - - - - S 39 52 21 28 - - -
24/08:00am - - - - - S 37 48 20 26 - - -
24/07:30am - - - - - S 37 50 20 27 - - -
24/07:00am - - - - - S 44 59 24 32 - - -
24/06:30am - - - - - S 43 54 23 29 - - -
24/06:00am - - - - - S 44 57 24 31 - - -
24/05:30am - - - - - SSE 44 57 24 31 - - -
24/05:00am - - - - - S 39 52 21 28 - - -
24/04:30am - - - - - S 43 52 23 28 - - -
24/04:00am - - - - - S 43 54 23 29 - - -
24/03:30am - - - - - SSE 46 59 25 32 - - -
24/03:00am - - - - - SSE 50 59 27 32 - - -
24/02:30am - - - - - SSE 44 54 24 29 - - -
24/02:00am - - - - - SSE 43 52 23 28 - - -
24/01:30am - - - - - SE 39 52 21 28 - - -
24/01:14am - - - - - SSE 35 59 19 32 - - -
24/01:00am - - - - - SSE 39 44 21 24 - - -
24/12:37am - - - - - S 26 48 14 26 - - -
24/12:30am - - - - - SSW 20 28 11 15 - - -
24/12:00am - - - - - SW 17 26 9 14 - - -
 
Date/Time
EST
Temp
°C
App
Temp
°C
Dew
Point
Rel
Hum
%
Delta-T
°C
Wind Press
QNH
hPa
Press
MSL
hPa
Rain
since 9 am
mm
Dir
 
Spd
km/h
Gust
km/h
Spd
kts
Gust
kts
23/11:30pm - - - - - S 33 48 18 26 - - -
23/11:17pm - - - - - S 28 54 15 29 - - -
23/11:00pm - - - - - S 22 30 12 16 - - -
23/10:30pm - - - - - SW 17 20 9 11 - - -
23/10:00pm - - - - - SSW 20 26 11 14 - - -
23/09:30pm - - - - - SW 17 19 9 10 - - -
23/09:00pm - - - - - SSW 17 22 9 12 - - -
23/08:30pm - - - - - SSW 15 20 8 11 - - -
23/08:00pm - - - - - SW 17 19 9 10 - - -
23/07:30pm - - - - - SW 17 22 9 12 - - -
23/07:00pm - - - - - SSW 20 26 11 14 - - -
23/06:30pm - - - - - S 28 35 15 19 - - -
23/06:00pm - - - - - S 26 35 14 19 - - -
23/05:30pm - - - - - S 30 35 16 19 - - -
23/05:00pm - - - - - S 32 39 17 21 - - -
23/04:30pm - - - - - S 32 39 17 21 - - -
23/04:00pm - - - - - S 33 39 18 21 - - -
23/03:30pm - - - - - SSE 33 39 18 21 - - -
23/03:00pm - - - - - SSE 33 39 18 21 - - -
23/02:30pm - - - - - SSE 33 39 18 21 - - -
23/02:00pm - - - - - SSE 32 37 17 20 - - -
23/01:30pm - - - - - S 28 37 15 20 - - -
23/01:00pm - - - - - SSE 28 37 15 20 - - -
23/12:30pm - - - - - SSE 30 39 16 21 - - -
23/12:00pm - - - - - SSE 32 39 17 21 - - -
23/11:30am - - - - - SSE 32 43 17 23 - - -
23/11:00am - - - - - SSE 35 48 19 26 - - -
23/10:30am - - - - - S 35 44 19 24 - - -
23/10:00am - - - - - S 35 46 19 25 - - -
23/09:30am - - - - - S 33 46 18 25 - - -
23/09:00am - - - - - S 30 41 16 22 - - -
23/08:30am - - - - - SSW 32 39 17 21 - - -
23/08:00am - - - - - SSW 30 43 16 23 - - -
23/07:30am - - - - - SSW 26 32 14 17 - - -
23/07:00am - - - - - SW 22 30 12 16 - - -
23/06:30am - - - - - SW 24 30 13 16 - - -
23/06:00am - - - - - SW 26 32 14 17 - - -

Other Formats:

Comma delimited format used in spreadsheet applications
http://www.bom.gov.au/fwo/IDQ60801/IDQ60801.99367.axf

JavaScript Object Notation format (JSON) in row-major order
http://www.bom.gov.au/fwo/IDQ60801/IDQ60801.99367.json